createdAt,value
2019-01-13T00:01:19.975Z,6.19
2019-01-13T00:06:38.658Z,6.16
2019-01-13T00:11:57.219Z,6.21
2019-01-13T00:17:15.841Z,6.21
2019-01-13T00:22:35.731Z,6.25
2019-01-13T00:27:54.377Z,6.22
2019-01-13T00:33:12.943Z,6.20
2019-01-13T00:38:31.567Z,6.21
2019-01-13T00:43:50.460Z,6.24
2019-01-13T00:49:09.129Z,6.25
2019-01-13T00:54:27.834Z,6.26
2019-01-13T00:59:46.937Z,6.27
2019-01-13T01:05:08.595Z,6.31
2019-01-13T01:10:27.254Z,6.34
2019-01-13T01:15:45.893Z,6.34
2019-01-13T01:21:04.617Z,6.38
2019-01-13T01:26:24.784Z,6.35
2019-01-13T01:31:43.425Z,6.39
2019-01-13T01:37:01.988Z,6.38
2019-01-13T01:42:20.543Z,6.48
2019-01-13T01:47:39.195Z,6.48
2019-01-13T01:52:58.052Z,6.41
2019-01-13T01:58:16.697Z,6.41
2019-01-13T02:03:35.455Z,6.45
2019-01-13T02:08:55.380Z,6.43
2019-01-13T02:14:14.055Z,6.42
2019-01-13T02:19:32.733Z,6.44
2019-01-13T02:24:51.287Z,6.40
2019-01-13T02:30:13.132Z,6.40
2019-01-13T02:35:31.796Z,6.46
2019-01-13T02:40:50.459Z,6.44
2019-01-13T02:46:09.172Z,6.37
2019-01-13T02:51:28.454Z,6.37
2019-01-13T02:56:47.180Z,6.34
2019-01-13T03:02:06.686Z,6.33
2019-01-13T03:07:27.026Z,6.39
2019-01-13T03:12:46.174Z,6.35
2019-01-13T03:18:04.915Z,6.33
2019-01-13T03:23:23.744Z,6.35
2019-01-13T03:28:42.388Z,6.34
2019-01-13T03:34:01.042Z,6.35
2019-01-13T03:39:19.793Z,6.40
2019-01-13T03:44:38.506Z,6.33
2019-01-13T03:49:57.165Z,6.38
2019-01-13T03:55:17.033Z,6.38
2019-01-13T04:00:35.735Z,6.40
2019-01-13T04:05:54.434Z,6.36
2019-01-13T04:11:13.008Z,6.35
2019-01-13T04:16:31.701Z,6.42
2019-01-13T04:21:50.326Z,6.42
2019-01-13T04:27:09.030Z,6.44
2019-01-13T04:32:27.589Z,6.45
2019-01-13T04:37:46.203Z,6.47
2019-01-13T04:43:04.941Z,6.48
2019-01-13T04:48:23.832Z,6.50
2019-01-13T04:53:42.442Z,6.50
2019-01-13T04:59:01.600Z,6.48
2019-01-13T05:04:20.233Z,6.43
2019-01-13T05:09:38.835Z,6.52
2019-01-13T05:14:57.433Z,6.47
2019-01-13T05:20:21.163Z,6.53
2019-01-13T05:25:39.737Z,6.49
2019-01-13T05:30:58.387Z,6.52
2019-01-13T05:36:17.031Z,6.48
2019-01-13T05:41:37.496Z,6.47
2019-01-13T05:46:57.791Z,6.49
2019-01-13T05:52:18.670Z,6.54
2019-01-13T05:57:37.437Z,6.51
2019-01-13T06:02:58.202Z,6.52
2019-01-13T06:08:16.958Z,6.59
2019-01-13T06:13:37.039Z,6.57
2019-01-13T06:18:55.676Z,6.61
2019-01-13T06:24:15.688Z,6.59
2019-01-13T06:29:34.505Z,6.63
2019-01-13T06:34:53.672Z,6.65
2019-01-13T06:40:15.044Z,6.69
2019-01-13T06:45:34.101Z,6.74
2019-01-13T06:50:52.775Z,6.78
2019-01-13T06:56:11.509Z,6.79
2019-01-13T07:01:30.247Z,6.80
2019-01-13T07:06:48.890Z,6.85
2019-01-13T07:12:07.428Z,6.84
2019-01-13T07:17:27.333Z,6.87
2019-01-13T07:22:46.163Z,6.87
2019-01-13T07:28:04.870Z,6.91
2019-01-13T07:33:24.605Z,6.96
2019-01-13T07:38:43.250Z,7.00
2019-01-13T07:44:03.521Z,7.03
2019-01-13T07:49:22.141Z,7.10
2019-01-13T07:54:40.783Z,7.12
2019-01-13T07:59:59.422Z,7.15
2019-01-13T08:05:18.276Z,7.20
2019-01-13T08:10:38.483Z,7.24
2019-01-13T08:15:57.116Z,7.29
2019-01-13T08:21:15.760Z,7.36
2019-01-13T08:26:34.519Z,7.36
2019-01-13T08:31:53.272Z,7.41
2019-01-13T08:37:11.940Z,7.40
2019-01-13T08:42:30.612Z,7.44
2019-01-13T08:47:49.273Z,7.48
2019-01-13T08:53:07.968Z,7.52
2019-01-13T08:58:26.660Z,7.54
2019-01-13T09:03:45.325Z,7.62
2019-01-13T09:09:07.293Z,7.63
2019-01-13T09:14:26.011Z,7.70
2019-01-13T09:19:44.666Z,7.72
2019-01-13T09:25:03.300Z,7.78
2019-01-13T09:30:24.339Z,7.82
2019-01-13T09:35:43.235Z,7.83
2019-01-13T09:41:01.857Z,7.83
2019-01-13T09:46:20.549Z,7.92
2019-01-13T09:51:39.841Z,7.85
2019-01-13T09:56:58.534Z,7.89
2019-01-13T10:02:17.316Z,7.88
2019-01-13T10:07:36.148Z,7.85
2019-01-13T10:12:54.927Z,7.85
2019-01-13T10:18:13.591Z,7.87
2019-01-13T10:23:32.319Z,7.83
2019-01-13T10:28:51.035Z,7.87
2019-01-13T10:34:10.306Z,7.82
2019-01-13T10:39:29.175Z,7.85
2019-01-13T10:44:47.735Z,7.86
2019-01-13T10:50:09.271Z,7.87
2019-01-13T10:55:28.220Z,7.89
2019-01-13T11:00:47.170Z,7.88
2019-01-13T11:06:05.785Z,7.91
2019-01-13T11:11:24.407Z,7.91
2019-01-13T11:16:43.128Z,7.96
2019-01-13T11:22:01.822Z,7.95
2019-01-13T11:27:20.568Z,7.99
2019-01-13T11:32:39.165Z,7.94
2019-01-13T11:38:01.923Z,7.92
2019-01-13T11:43:20.703Z,7.97
2019-01-13T11:48:39.260Z,8.03
2019-01-13T11:53:57.885Z,8.00
2019-01-13T11:59:16.782Z,8.00
2019-01-13T12:04:35.432Z,8.01
2019-01-13T12:09:54.008Z,8.01
2019-01-13T12:15:14.772Z,8.02
2019-01-13T12:20:33.720Z,8.00
2019-01-13T12:25:53.026Z,7.99
2019-01-13T12:31:11.671Z,7.97
2019-01-13T12:36:30.291Z,7.99
2019-01-13T12:41:48.985Z,8.00
2019-01-13T12:47:07.695Z,7.97
2019-01-13T12:52:26.236Z,7.96
2019-01-13T12:57:45.050Z,7.96
2019-01-13T13:03:03.796Z,7.95
2019-01-13T13:08:22.414Z,7.98
2019-01-13T13:13:41.114Z,7.99
2019-01-13T13:18:59.963Z,7.96
2019-01-13T13:24:18.552Z,7.98
2019-01-13T13:29:37.181Z,7.97
2019-01-13T13:34:55.920Z,7.97
2019-01-13T13:40:17.355Z,7.95
2019-01-13T13:45:36.003Z,7.98
2019-01-13T13:50:54.561Z,7.98
2019-01-13T13:56:13.117Z,7.99
2019-01-13T14:01:31.680Z,8.00
2019-01-13T14:06:50.232Z,7.94
2019-01-13T14:12:08.858Z,7.93
2019-01-13T14:17:27.721Z,7.96
2019-01-13T14:22:46.343Z,7.97
2019-01-13T14:28:05.287Z,7.94
2019-01-13T14:33:24.062Z,7.93
2019-01-13T14:38:42.942Z,7.94
2019-01-13T14:44:01.639Z,7.95
2019-01-13T14:49:20.290Z,7.96
2019-01-13T14:54:38.815Z,7.95
2019-01-13T14:59:58.223Z,7.93
2019-01-13T15:05:16.929Z,7.94
2019-01-13T15:10:35.860Z,7.93
2019-01-13T15:15:54.451Z,7.95
2019-01-13T15:21:13.009Z,7.97
2019-01-13T15:26:32.130Z,8.13
2019-01-13T15:31:50.748Z,8.02
2019-01-13T15:37:09.493Z,7.94
2019-01-13T15:42:28.186Z,7.93
2019-01-13T15:47:48.043Z,8.03
2019-01-13T15:53:06.682Z,7.99
2019-01-13T15:58:25.248Z,7.94
2019-01-13T16:03:46.272Z,7.96
2019-01-13T16:09:08.436Z,7.92
2019-01-13T16:14:27.063Z,7.89
2019-01-13T16:19:45.720Z,7.90
2019-01-13T16:25:05.301Z,7.88
2019-01-13T16:30:29.119Z,7.92
2019-01-13T16:35:50.018Z,7.92
2019-01-13T16:41:10.721Z,7.92
2019-01-13T16:46:29.217Z,7.94
2019-01-13T16:57:43.218Z,7.94
2019-01-13T17:03:01.899Z,7.94
2019-01-13T17:14:15.992Z,7.92
2019-01-13T17:19:35.486Z,7.97
2019-01-13T17:24:54.216Z,7.97
2019-01-13T17:30:15.980Z,7.92
2019-01-13T17:35:34.683Z,7.90
2019-01-13T17:40:53.455Z,7.86
2019-01-13T17:46:12.076Z,7.83
2019-01-13T17:51:32.354Z,7.86
2019-01-13T17:56:52.287Z,7.82
2019-01-13T18:02:11.086Z,7.87
2019-01-13T18:07:29.742Z,7.85
2019-01-13T18:12:48.475Z,7.88
2019-01-13T18:18:07.106Z,7.84
2019-01-13T18:23:25.787Z,7.71
2019-01-13T18:28:44.425Z,6.86
2019-01-13T18:34:02.985Z,6.42
2019-01-13T18:39:21.606Z,6.28
2019-01-13T18:44:40.313Z,6.21
2019-01-13T18:50:00.531Z,6.23
2019-01-13T18:55:19.298Z,6.29
2019-01-13T19:00:37.971Z,6.36
2019-01-13T19:05:58.340Z,6.48
2019-01-13T19:11:18.892Z,6.48
2019-01-13T19:16:39.917Z,6.43
2019-01-13T19:21:58.696Z,6.58
2019-01-13T19:27:17.391Z,6.57
2019-01-13T19:32:36.189Z,6.60
2019-01-13T19:37:54.867Z,6.63
2019-01-13T19:43:13.940Z,6.63
2019-01-13T19:48:32.585Z,6.67
2019-01-13T19:53:51.576Z,6.69
2019-01-13T19:59:10.252Z,6.69
2019-01-13T20:04:28.878Z,6.68
2019-01-13T20:09:47.498Z,6.70
2019-01-13T20:15:09.035Z,6.69
2019-01-13T20:20:27.681Z,6.67
2019-01-13T20:25:46.246Z,6.71
2019-01-13T20:31:04.978Z,6.68
2019-01-13T20:36:23.778Z,6.71
2019-01-13T20:41:42.244Z,6.67
2019-01-13T20:47:00.984Z,6.66
2019-01-13T20:52:19.559Z,6.60
2019-01-13T20:57:38.166Z,6.60
2019-01-13T21:02:57.108Z,6.57
2019-01-13T21:08:18.988Z,6.63
2019-01-13T21:13:40.097Z,6.62
2019-01-13T21:18:58.789Z,6.53
2019-01-13T21:24:17.383Z,6.34
2019-01-13T21:29:36.025Z,6.09
2019-01-13T21:34:54.610Z,5.90
2019-01-13T21:40:53.184Z,5.74
2019-01-13T21:46:11.715Z,5.73
2019-01-13T21:51:30.183Z,5.69
2019-01-13T21:56:48.639Z,5.71
2019-01-13T22:02:07.256Z,5.69
2019-01-13T22:07:25.868Z,5.65
2019-01-13T22:12:44.480Z,5.60
2019-01-13T22:18:03.070Z,5.56
2019-01-13T22:23:21.797Z,5.45
2019-01-13T22:28:40.326Z,5.44
2019-01-13T22:33:58.803Z,5.38
2019-01-13T22:39:17.274Z,5.44
2019-01-13T22:44:35.869Z,5.48
2019-01-13T22:49:54.371Z,5.62
2019-01-13T22:55:12.982Z,5.71
2019-01-13T23:01:11.365Z,5.83
2019-01-13T23:06:29.841Z,5.85
2019-01-13T23:11:48.455Z,5.91
2019-01-13T23:17:07.260Z,5.93
2019-01-13T23:22:25.876Z,5.91
2019-01-13T23:27:44.398Z,5.91
2019-01-13T23:38:33.441Z,5.94
2019-01-13T23:43:51.990Z,5.93
2019-01-13T23:54:42.600Z,5.95
